createdAt,value
2018-09-11T00:00:14.031Z,3.63
2018-09-11T00:02:42.223Z,3.90
2018-09-11T00:05:10.407Z,3.00
2018-09-11T00:07:38.899Z,3.50
2018-09-11T00:10:07.190Z,3.17
2018-09-11T00:12:35.503Z,3.23
2018-09-11T00:15:03.674Z,2.90
2018-09-11T00:17:32.033Z,3.17
2018-09-11T00:20:00.312Z,2.90
2018-09-11T00:22:28.540Z,3.00
2018-09-11T00:24:56.776Z,2.90
2018-09-11T00:27:24.981Z,3.00
2018-09-11T00:29:53.168Z,3.30
2018-09-11T00:32:21.625Z,2.97
2018-09-11T00:34:49.858Z,2.80
2018-09-11T00:37:18.075Z,3.20
2018-09-11T00:39:46.265Z,2.93
2018-09-11T00:42:14.512Z,2.77
2018-09-11T00:44:42.851Z,3.07
2018-09-11T00:47:11.111Z,2.60
2018-09-11T00:49:39.621Z,3.00
2018-09-11T00:52:07.824Z,3.00
2018-09-11T00:54:36.105Z,2.90
2018-09-11T00:57:04.449Z,2.80
2018-09-11T00:59:33.036Z,2.70
2018-09-11T01:02:01.348Z,2.93
2018-09-11T01:04:29.591Z,2.60
2018-09-11T01:06:57.840Z,3.17
2018-09-11T01:09:26.112Z,2.97
2018-09-11T01:11:54.354Z,2.90
2018-09-11T01:14:22.643Z,2.70
2018-09-11T01:16:51.001Z,2.70
2018-09-11T01:19:19.292Z,3.13
2018-09-11T01:21:47.798Z,2.73
2018-09-11T01:24:16.143Z,2.87
2018-09-11T01:26:44.428Z,3.23
2018-09-11T01:29:12.833Z,3.00
2018-09-11T01:31:41.158Z,3.10
2018-09-11T01:34:09.424Z,3.63
2018-09-11T01:36:37.899Z,3.27
2018-09-11T01:39:08.718Z,2.53
2018-09-11T01:41:37.157Z,3.17
2018-09-11T01:44:05.401Z,3.20
2018-09-11T01:46:33.720Z,4.13
2018-09-11T01:49:01.965Z,3.60
2018-09-11T01:51:30.362Z,3.57
2018-09-11T01:53:58.646Z,3.70
2018-09-11T01:56:27.084Z,2.83
2018-09-11T01:58:55.332Z,2.60
2018-09-11T02:01:23.669Z,3.00
2018-09-11T02:03:52.036Z,2.80
2018-09-11T02:06:20.436Z,2.70
2018-09-11T02:08:48.713Z,2.97
2018-09-11T02:11:17.018Z,2.60
2018-09-11T02:13:45.244Z,3.30
2018-09-11T02:16:13.502Z,2.93
2018-09-11T02:18:41.746Z,2.77
2018-09-11T02:21:10.030Z,3.30
2018-09-11T02:23:38.386Z,2.60
2018-09-11T02:26:06.812Z,2.73
2018-09-11T02:28:35.090Z,3.30
2018-09-11T02:31:03.445Z,3.20
2018-09-11T02:33:31.677Z,2.83
2018-09-11T02:35:59.967Z,3.00
2018-09-11T02:38:28.269Z,3.03
2018-09-11T02:40:56.509Z,3.10
2018-09-11T02:43:24.841Z,3.80
2018-09-11T02:45:53.263Z,3.90
2018-09-11T02:48:21.595Z,3.80
2018-09-11T02:50:50.150Z,3.00
2018-09-11T02:53:18.341Z,3.20
2018-09-11T02:55:46.619Z,3.27
2018-09-11T02:58:15.141Z,3.00
2018-09-11T03:00:43.418Z,3.30
2018-09-11T03:03:11.953Z,3.13
2018-09-11T03:05:40.372Z,3.33
2018-09-11T03:08:08.652Z,3.00
2018-09-11T03:10:36.973Z,3.70
2018-09-11T03:13:05.315Z,3.37
2018-09-11T03:15:33.798Z,3.57
2018-09-11T03:18:02.766Z,3.47
2018-09-11T03:20:31.934Z,3.13
2018-09-11T03:23:00.394Z,3.00
2018-09-11T03:25:28.651Z,3.57
2018-09-11T03:27:57.394Z,3.00
2018-09-11T03:30:25.621Z,3.83
2018-09-11T03:32:53.805Z,3.80
2018-09-11T03:35:22.124Z,3.47
2018-09-11T03:37:50.442Z,3.23
2018-09-11T03:40:18.730Z,3.20
2018-09-11T03:42:47.022Z,3.20
2018-09-11T03:45:15.729Z,3.63
2018-09-11T03:47:44.158Z,3.63
2018-09-11T03:50:12.523Z,3.60
2018-09-11T03:52:40.719Z,3.50
2018-09-11T03:55:09.055Z,3.60
2018-09-11T03:57:37.289Z,3.50
2018-09-11T04:00:05.833Z,3.53
2018-09-11T04:02:34.350Z,3.50
2018-09-11T04:05:02.749Z,3.57
2018-09-11T04:07:31.142Z,3.73
2018-09-11T04:09:59.459Z,4.10
2018-09-11T04:12:27.934Z,3.00
2018-09-11T04:14:56.146Z,3.77
2018-09-11T04:17:35.435Z,3.20
2018-09-11T04:20:03.924Z,3.20
2018-09-11T04:22:32.386Z,3.70
2018-09-11T04:25:01.192Z,3.43
2018-09-11T04:27:29.558Z,3.70
2018-09-11T04:29:57.928Z,3.70
2018-09-11T04:32:26.307Z,3.37
2018-09-11T04:34:54.758Z,3.60
2018-09-11T04:37:23.131Z,3.67
2018-09-11T04:39:51.524Z,4.83
2018-09-11T04:42:23.453Z,4.80
2018-09-11T04:44:51.753Z,3.70
2018-09-11T04:47:20.418Z,4.27
2018-09-11T04:49:48.845Z,4.17
2018-09-11T04:52:17.295Z,4.40
2018-09-11T04:54:45.669Z,4.20
2018-09-11T04:57:14.191Z,4.20
2018-09-11T04:59:42.509Z,4.60
2018-09-11T05:02:10.898Z,4.20
2018-09-11T05:04:39.538Z,4.43
2018-09-11T05:07:08.671Z,4.93
2018-09-11T05:09:37.603Z,4.20
2018-09-11T05:12:06.255Z,5.10
2018-09-11T05:14:34.875Z,5.20
2018-09-11T05:17:03.263Z,5.07
2018-09-11T05:19:31.878Z,4.70
2018-09-11T05:22:00.533Z,5.20
2018-09-11T05:24:28.825Z,5.00
2018-09-11T05:26:57.181Z,4.50
2018-09-11T05:29:25.685Z,4.77
2018-09-11T05:31:54.207Z,5.33
2018-09-11T05:34:22.561Z,5.03
2018-09-11T05:36:51.155Z,5.13
2018-09-11T05:39:20.069Z,4.83
2018-09-11T05:41:51.317Z,5.43
2018-09-11T05:44:24.933Z,6.03
2018-09-11T05:46:53.587Z,4.20
2018-09-11T05:49:21.955Z,4.37
2018-09-11T05:51:50.418Z,4.37
2018-09-11T05:54:18.925Z,4.33
2018-09-11T05:56:47.256Z,4.50
2018-09-11T05:59:15.791Z,4.83
2018-09-11T06:01:44.151Z,5.23
2018-09-11T06:04:12.546Z,4.37
2018-09-11T06:06:40.936Z,5.17
2018-09-11T06:09:11.307Z,4.27
2018-09-11T06:11:39.784Z,4.70
2018-09-11T06:14:09.549Z,5.33
2018-09-11T06:16:37.901Z,4.73
2018-09-11T06:19:07.237Z,5.03
2018-09-11T06:21:35.874Z,6.13
2018-09-11T06:24:04.235Z,5.40
2018-09-11T06:26:32.545Z,5.13
2018-09-11T06:29:01.208Z,4.87
2018-09-11T06:31:29.603Z,5.33
2018-09-11T06:33:58.120Z,4.70
2018-09-11T06:36:26.706Z,5.43
2018-09-11T06:38:55.702Z,5.53
2018-09-11T06:41:24.245Z,4.90
2018-09-11T06:43:53.539Z,5.30
2018-09-11T06:46:22.097Z,4.97
2018-09-11T06:48:50.580Z,7.93
2018-09-11T06:51:19.126Z,10.50
2018-09-11T06:53:47.846Z,5.27
2018-09-11T06:56:17.239Z,5.43
2018-09-11T06:58:45.785Z,4.70
2018-09-11T07:01:14.435Z,4.60
2018-09-11T07:03:42.705Z,4.63
2018-09-11T07:06:11.067Z,4.07
2018-09-11T07:08:39.415Z,4.33
2018-09-11T07:11:08.062Z,3.70
2018-09-11T07:13:36.321Z,6.20
2018-09-11T07:16:04.631Z,4.73
2018-09-11T07:18:33.167Z,4.33
2018-09-11T07:21:01.556Z,3.70
2018-09-11T07:23:30.360Z,3.47
2018-09-11T07:25:58.956Z,3.97
2018-09-11T07:28:27.212Z,3.40
2018-09-11T07:30:55.758Z,3.97
2018-09-11T07:33:24.122Z,4.13
2018-09-11T07:35:52.559Z,4.27
2018-09-11T07:38:20.989Z,3.40
2018-09-11T07:40:49.676Z,4.40
2018-09-11T07:43:18.317Z,3.93
2018-09-11T07:45:46.810Z,4.23
2018-09-11T07:48:15.576Z,5.00
2018-09-11T07:50:43.894Z,5.13
2018-09-11T07:53:12.316Z,4.30
2018-09-11T07:55:40.703Z,3.80
2018-09-11T07:58:09.201Z,4.40
2018-09-11T08:00:37.706Z,4.17
2018-09-11T08:03:06.019Z,4.47
2018-09-11T08:05:34.339Z,4.90
2018-09-11T08:08:03.009Z,15.83
2018-09-11T08:10:31.637Z,10.40
2018-09-11T08:13:00.136Z,4.93
2018-09-11T08:15:30.334Z,4.60
2018-09-11T08:17:58.698Z,5.17
2018-09-11T08:20:27.248Z,4.27
2018-09-11T08:22:56.081Z,4.23
2018-09-11T08:25:24.458Z,4.43
2018-09-11T08:27:53.242Z,4.07
2018-09-11T08:30:21.770Z,4.43
2018-09-11T08:32:50.245Z,4.60
2018-09-11T08:35:18.788Z,4.37
2018-09-11T08:37:47.576Z,4.63
2018-09-11T08:40:16.056Z,4.17
2018-09-11T08:42:49.372Z,4.93
2018-09-11T08:45:18.476Z,5.00
2018-09-11T08:47:47.341Z,5.03
2018-09-11T08:50:15.815Z,4.27
2018-09-11T08:52:44.221Z,5.13
2018-09-11T08:55:12.727Z,5.03
2018-09-11T08:57:41.254Z,4.93
2018-09-11T09:00:10.243Z,4.73
2018-09-11T09:02:38.658Z,4.40
2018-09-11T09:05:07.011Z,4.20
2018-09-11T09:07:35.328Z,4.23
2018-09-11T09:10:04.044Z,4.40
2018-09-11T09:12:32.350Z,4.07
2018-09-11T09:15:00.613Z,4.30
2018-09-11T09:17:28.845Z,3.80
2018-09-11T09:19:58.518Z,4.27
2018-09-11T09:22:26.946Z,4.30
2018-09-11T09:24:55.415Z,3.83
2018-09-11T09:27:23.828Z,4.37
2018-09-11T09:29:52.182Z,4.53
2018-09-11T09:32:20.825Z,5.53
2018-09-11T09:34:49.283Z,4.17
2018-09-11T09:37:17.626Z,3.97
2018-09-11T09:39:45.935Z,4.30
2018-09-11T09:42:14.422Z,4.30
2018-09-11T09:44:42.774Z,4.50
2018-09-11T09:47:11.235Z,4.43
2018-09-11T09:49:39.689Z,5.10
2018-09-11T09:52:08.053Z,4.70
2018-09-11T09:54:36.427Z,5.13
2018-09-11T09:57:05.365Z,4.77
2018-09-11T09:59:33.952Z,4.40
2018-09-11T10:02:08.631Z,5.73
2018-09-11T10:04:37.018Z,3.67
2018-09-11T10:07:05.463Z,4.40
2018-09-11T10:09:34.184Z,3.80
2018-09-11T10:12:02.613Z,3.83
2018-09-11T10:14:31.473Z,6.80
2018-09-11T10:16:59.826Z,4.70
2018-09-11T10:19:28.260Z,4.07
2018-09-11T10:21:56.921Z,7.30
2018-09-11T10:24:25.341Z,7.23
2018-09-11T10:26:53.848Z,5.20
2018-09-11T10:29:22.171Z,3.70
2018-09-11T10:31:50.616Z,3.30
2018-09-11T10:34:19.063Z,4.40
2018-09-11T10:36:51.380Z,4.20
2018-09-11T10:39:19.787Z,3.60
2018-09-11T10:41:48.102Z,4.07
2018-09-11T10:44:16.413Z,3.77
2018-09-11T10:46:44.697Z,3.47
2018-09-11T10:49:12.949Z,3.27
2018-09-11T10:51:41.292Z,3.53
2018-09-11T10:54:09.946Z,3.70
2018-09-11T10:56:38.504Z,3.43
2018-09-11T10:59:07.725Z,3.60
2018-09-11T11:01:37.011Z,3.47
2018-09-11T11:04:05.296Z,3.97
2018-09-11T11:06:34.360Z,3.43
2018-09-11T11:09:02.726Z,4.10
2018-09-11T11:11:32.052Z,3.80
2018-09-11T11:14:00.535Z,3.43
2018-09-11T11:16:29.086Z,3.47
2018-09-11T11:18:57.612Z,3.50
2018-09-11T11:21:26.367Z,3.17
2018-09-11T11:23:55.274Z,3.93
2018-09-11T11:26:23.953Z,4.50
2018-09-11T11:28:52.349Z,3.50
2018-09-11T11:31:20.842Z,4.23
2018-09-11T11:33:49.238Z,3.57
2018-09-11T11:36:17.833Z,3.87
2018-09-11T11:38:46.077Z,3.20
2018-09-11T11:41:14.451Z,3.20
2018-09-11T11:43:43.537Z,3.47
2018-09-11T11:46:11.867Z,3.77
2018-09-11T11:48:40.300Z,3.60
2018-09-11T11:51:08.620Z,4.00
2018-09-11T11:53:38.091Z,3.87
2018-09-11T11:56:07.120Z,3.80
2018-09-11T11:58:35.662Z,3.83
2018-09-11T12:01:04.137Z,3.50
2018-09-11T12:03:32.723Z,3.60
2018-09-11T12:06:01.934Z,3.80
2018-09-11T12:08:30.927Z,4.80
2018-09-11T12:10:59.412Z,3.50
2018-09-11T12:13:27.789Z,3.57
2018-09-11T12:15:56.496Z,3.27
2018-09-11T12:18:24.872Z,3.63
2018-09-11T12:20:53.355Z,3.00
2018-09-11T12:23:21.791Z,3.87
2018-09-11T12:25:59.219Z,3.63
2018-09-11T12:28:27.592Z,4.00
2018-09-11T12:30:56.408Z,3.60
2018-09-11T12:33:25.049Z,3.87
2018-09-11T12:35:53.589Z,3.90
2018-09-11T12:38:22.560Z,3.07
2018-09-11T12:40:51.035Z,2.87
2018-09-11T12:43:19.396Z,3.60
2018-09-11T12:45:47.815Z,3.53
2018-09-11T12:48:16.760Z,3.20
2018-09-11T12:50:44.852Z,3.43
2018-09-11T12:53:13.538Z,4.50
2018-09-11T12:55:42.006Z,5.07
2018-09-11T12:58:10.591Z,3.23
2018-09-11T13:00:38.928Z,3.67
2018-09-11T13:03:07.272Z,3.97
2018-09-11T13:05:36.503Z,3.53
2018-09-11T13:08:11.326Z,3.10
2018-09-11T13:10:39.583Z,3.43
2018-09-11T13:13:08.069Z,3.77
2018-09-11T13:15:36.480Z,3.50
2018-09-11T13:18:05.312Z,2.90
2018-09-11T13:20:33.585Z,3.03
2018-09-11T13:23:01.871Z,3.50
2018-09-11T13:25:30.236Z,3.80
2018-09-11T13:27:58.680Z,3.53
2018-09-11T13:30:27.024Z,3.50
2018-09-11T13:32:55.789Z,3.60
2018-09-11T13:35:24.154Z,3.77
2018-09-11T13:37:52.837Z,3.60
2018-09-11T13:40:21.086Z,4.60
2018-09-11T13:42:49.369Z,5.70
2018-09-11T13:45:17.740Z,6.00
2018-09-11T13:47:46.280Z,3.93
2018-09-11T13:50:15.555Z,2.97
2018-09-11T13:52:44.036Z,4.20
2018-09-11T13:55:12.457Z,6.30
2018-09-11T13:57:40.899Z,3.13
2018-09-11T14:00:09.316Z,2.90
2018-09-11T14:02:38.244Z,3.00
2018-09-11T14:05:06.697Z,2.77
2018-09-11T14:07:35.030Z,2.80
2018-09-11T14:10:03.623Z,2.80
2018-09-11T14:12:32.517Z,2.60
2018-09-11T14:15:00.777Z,2.73
2018-09-11T14:17:29.104Z,2.97
2018-09-11T14:19:57.650Z,2.50
2018-09-11T14:22:26.036Z,2.60
2018-09-11T14:24:54.463Z,2.80
2018-09-11T14:27:23.430Z,12.73
2018-09-11T14:29:51.783Z,3.37
2018-09-11T14:32:20.394Z,3.27
2018-09-11T14:34:55.605Z,2.60
2018-09-11T14:37:24.976Z,2.60
2018-09-11T14:39:53.377Z,2.30
2018-09-11T14:42:21.858Z,2.70
2018-09-11T14:44:50.768Z,2.30
2018-09-11T14:47:19.170Z,2.47
2018-09-11T14:49:47.842Z,2.40
2018-09-11T14:52:17.129Z,2.10
2018-09-11T14:54:45.597Z,2.77
2018-09-11T14:57:14.154Z,2.20
2018-09-11T14:59:42.771Z,2.20
2018-09-11T15:02:11.195Z,2.63
2018-09-11T15:04:40.393Z,2.40
2018-09-11T15:07:09.259Z,2.57
2018-09-11T15:09:37.758Z,2.37
2018-09-11T15:12:06.363Z,2.30
2018-09-11T15:14:34.835Z,2.27
2018-09-11T15:17:03.095Z,2.60
2018-09-11T15:19:32.167Z,2.70
2018-09-11T15:22:00.511Z,2.20
2018-09-11T15:24:29.011Z,2.60
2018-09-11T15:26:57.365Z,2.67
2018-09-11T15:29:25.783Z,2.40
2018-09-11T15:31:54.201Z,2.23
2018-09-11T15:34:22.671Z,3.10
2018-09-11T15:36:51.574Z,3.20
2018-09-11T15:39:20.165Z,2.90
2018-09-11T15:41:48.665Z,2.30
2018-09-11T15:44:17.289Z,2.60
2018-09-11T15:46:46.433Z,2.73
2018-09-11T15:49:15.610Z,4.47
2018-09-11T15:51:44.066Z,3.10
2018-09-11T15:54:12.479Z,3.30
2018-09-11T15:56:41.362Z,4.00
2018-09-11T15:59:11.281Z,3.47
2018-09-11T16:01:39.894Z,3.10
2018-09-11T16:04:08.335Z,2.97
2018-09-11T16:06:36.843Z,3.10
2018-09-11T16:09:08.271Z,3.80
2018-09-11T16:11:36.644Z,3.60
2018-09-11T16:14:05.164Z,3.33
2018-09-11T16:16:35.279Z,3.00
2018-09-11T16:19:03.681Z,2.93
2018-09-11T16:21:32.355Z,2.77
2018-09-11T16:24:01.459Z,2.80
2018-09-11T16:26:30.311Z,4.07
2018-09-11T16:28:59.497Z,3.13
2018-09-11T16:31:28.192Z,2.47
2018-09-11T16:33:56.862Z,2.80
2018-09-11T16:36:25.258Z,2.57
2018-09-11T16:38:53.759Z,2.77
2018-09-11T16:41:22.918Z,2.90
2018-09-11T16:43:52.136Z,2.60
2018-09-11T16:46:21.158Z,2.77
2018-09-11T16:48:49.654Z,2.60
2018-09-11T16:51:18.097Z,3.10
2018-09-11T16:53:46.773Z,3.07
2018-09-11T16:56:15.172Z,3.50
2018-09-11T16:58:43.596Z,3.50
2018-09-11T17:01:12.335Z,4.47
2018-09-11T17:03:40.645Z,4.00
2018-09-11T17:06:09.002Z,3.50
2018-09-11T17:08:37.669Z,5.80
2018-09-11T17:11:06.550Z,5.30
2018-09-11T17:13:35.760Z,5.20
2018-09-11T17:16:04.358Z,4.37
2018-09-11T17:18:39.488Z,4.53
2018-09-11T17:21:12.585Z,4.20
2018-09-11T17:23:50.212Z,4.03
2018-09-11T17:26:18.750Z,3.47
2018-09-11T17:28:47.165Z,3.27
2018-09-11T17:31:15.683Z,3.53
2018-09-11T17:33:44.106Z,3.20
2018-09-11T17:36:12.585Z,3.30
2018-09-11T17:38:41.343Z,3.23
2018-09-11T17:41:09.917Z,3.80
2018-09-11T17:43:38.506Z,3.43
2018-09-11T17:46:07.096Z,3.53
2018-09-11T17:48:35.481Z,4.23
2018-09-11T17:51:04.027Z,4.63
2018-09-11T17:53:32.458Z,4.83
2018-09-11T17:56:01.610Z,4.43
2018-09-11T17:58:30.081Z,4.60
2018-09-11T18:00:58.969Z,4.70
2018-09-11T18:03:27.898Z,3.70
2018-09-11T18:05:57.037Z,4.30
2018-09-11T18:08:26.167Z,4.80
2018-09-11T18:10:55.292Z,5.70
2018-09-11T18:13:24.532Z,5.90
2018-09-11T18:15:53.082Z,5.90
2018-09-11T18:18:21.815Z,5.53
2018-09-11T18:20:50.306Z,4.93
2018-09-11T18:23:18.721Z,5.47
2018-09-11T18:25:47.189Z,4.93
2018-09-11T18:28:15.675Z,5.80
2018-09-11T18:30:45.423Z,5.00
2018-09-11T18:33:13.889Z,5.37
2018-09-11T18:35:42.351Z,5.17
2018-09-11T18:38:10.975Z,5.70
2018-09-11T18:40:40.859Z,4.93
2018-09-11T18:43:09.520Z,4.73
2018-09-11T18:45:37.923Z,4.70
2018-09-11T18:48:07.061Z,4.43
2018-09-11T18:50:35.600Z,4.83
2018-09-11T18:53:04.269Z,4.60
2018-09-11T18:55:33.206Z,4.47
2018-09-11T18:58:02.045Z,5.27
2018-09-11T19:00:31.739Z,5.33
2018-09-11T19:03:02.244Z,5.30
2018-09-11T19:05:33.271Z,4.50
2018-09-11T19:08:09.116Z,8.27
2018-09-11T19:10:37.655Z,8.13
2018-09-11T19:13:06.487Z,7.00
2018-09-11T19:15:35.257Z,5.17
2018-09-11T19:18:03.769Z,5.40
2018-09-11T19:20:32.337Z,4.83
2018-09-11T19:23:00.836Z,4.20
2018-09-11T19:25:31.667Z,4.10
2018-09-11T19:28:00.316Z,4.10
2018-09-11T19:30:29.092Z,4.27
2018-09-11T19:32:57.678Z,4.07
2018-09-11T19:35:26.460Z,4.23
2018-09-11T19:37:54.898Z,3.90
2018-09-11T19:40:23.483Z,3.90
2018-09-11T19:42:53.519Z,3.90
2018-09-11T19:45:22.170Z,4.27
2018-09-11T19:47:50.654Z,4.07
2018-09-11T19:50:19.173Z,4.50
2018-09-11T19:52:48.288Z,4.47
2018-09-11T19:55:16.722Z,4.23
2018-09-11T19:57:45.359Z,4.73
2018-09-11T20:00:14.588Z,5.10
2018-09-11T20:02:43.339Z,5.73
2018-09-11T20:05:12.029Z,4.50
2018-09-11T20:07:41.993Z,4.47
2018-09-11T20:10:10.464Z,4.93
2018-09-11T20:12:39.042Z,5.60
2018-09-11T20:15:08.777Z,5.50
2018-09-11T20:17:37.825Z,4.40
2018-09-11T20:20:08.395Z,4.90
2018-09-11T20:22:36.990Z,5.10
2018-09-11T20:25:05.732Z,5.70
2018-09-11T20:27:34.334Z,5.43
2018-09-11T20:30:03.186Z,4.77
2018-09-11T20:32:32.215Z,5.10
2018-09-11T20:35:01.328Z,5.47
2018-09-11T20:37:29.901Z,5.57
2018-09-11T20:39:58.414Z,7.47
2018-09-11T20:42:26.896Z,8.23
2018-09-11T20:44:55.558Z,7.10
2018-09-11T20:47:23.981Z,6.67
2018-09-11T20:49:52.493Z,6.00
2018-09-11T20:52:20.895Z,5.37
2018-09-11T20:54:49.300Z,5.63
2018-09-11T20:57:17.857Z,5.23
2018-09-11T20:59:46.706Z,5.50
2018-09-11T21:02:15.585Z,4.83
2018-09-11T21:04:44.714Z,5.13
2018-09-11T21:07:13.863Z,5.83
2018-09-11T21:09:42.312Z,5.10
2018-09-11T21:12:10.820Z,4.90
2018-09-11T21:14:39.287Z,5.50
2018-09-11T21:17:08.765Z,5.57
2018-09-11T21:19:44.700Z,5.07
2018-09-11T21:22:13.187Z,5.13
2018-09-11T21:24:41.813Z,5.20
2018-09-11T21:27:10.841Z,5.23
2018-09-11T21:29:39.434Z,5.10
2018-09-11T21:32:08.162Z,4.60
2018-09-11T21:34:36.760Z,5.33
2018-09-11T21:37:06.687Z,4.77
2018-09-11T21:39:35.387Z,4.50
2018-09-11T21:42:03.935Z,4.47
2018-09-11T21:44:32.491Z,4.80
2018-09-11T21:47:01.068Z,5.40
2018-09-11T21:49:29.550Z,5.40
2018-09-11T21:51:58.175Z,5.90
2018-09-11T21:54:26.912Z,5.03
2018-09-11T21:56:55.453Z,4.93
2018-09-11T21:59:24.810Z,4.67
2018-09-11T22:01:54.366Z,4.60
2018-09-11T22:04:24.446Z,4.43
2018-09-11T22:06:54.555Z,4.17
2018-09-11T22:09:23.243Z,4.07
2018-09-11T22:11:52.266Z,4.33
2018-09-11T22:14:22.549Z,4.70
2018-09-11T22:16:52.161Z,4.17
2018-09-11T22:19:21.248Z,3.77
2018-09-11T22:21:50.709Z,3.80
2018-09-11T22:24:20.496Z,5.70
2018-09-11T22:26:49.281Z,4.20
2018-09-11T22:29:18.702Z,4.20
2018-09-11T22:31:47.723Z,3.87
2018-09-11T22:34:18.775Z,4.23
2018-09-11T22:36:49.025Z,4.10
2018-09-11T22:39:17.388Z,4.00
2018-09-11T22:41:52.130Z,4.10
2018-09-11T22:44:20.506Z,4.00
2018-09-11T22:46:48.868Z,4.20
2018-09-11T22:49:17.552Z,4.20
2018-09-11T22:51:45.871Z,4.00
2018-09-11T22:54:14.156Z,4.30
2018-09-11T22:56:42.371Z,3.90
2018-09-11T22:59:10.757Z,4.20
2018-09-11T23:01:39.051Z,4.30
2018-09-11T23:04:07.428Z,4.30
2018-09-11T23:06:35.704Z,4.30
2018-09-11T23:09:05.141Z,15.30
2018-09-11T23:11:33.429Z,9.80
2018-09-11T23:14:02.028Z,5.50
2018-09-11T23:16:30.432Z,4.03
2018-09-11T23:18:58.809Z,3.50
2018-09-11T23:21:27.194Z,3.30
2018-09-11T23:23:55.446Z,3.40
2018-09-11T23:26:24.146Z,3.60
2018-09-11T23:28:52.479Z,3.60
2018-09-11T23:31:20.833Z,3.03
2018-09-11T23:33:50.124Z,3.50
2018-09-11T23:36:18.466Z,3.10
2018-09-11T23:38:46.681Z,3.67
2018-09-11T23:41:14.955Z,3.23
2018-09-11T23:43:43.225Z,3.47
2018-09-11T23:46:11.491Z,3.20
2018-09-11T23:48:39.766Z,3.00
2018-09-11T23:51:07.998Z,2.93
2018-09-11T23:53:36.213Z,2.87
2018-09-11T23:56:04.471Z,3.13
2018-09-11T23:58:32.721Z,3.10
